Time;durP1;ratioP1;P1;durP2;ratioP2;P2;SDS_P1;SDS_P2;PMS_P1;PMS_P2;Temp;Humidity;BMP_temperature;BMP_pressure;BME280_temperature;BME280_humidity;BME280_pressure;Samples;Min_cycle;Max_cycle;Signal;HPM_P1;HPM_P2
2022/06/19 00:02:20;;;;;;;21.27;4.93;;;15.10;80.10;;;;;;5075492;28;20659;-87
2022/06/19 00:04:50;;;;;;;24.23;5.45;;;15.10;80.40;;;;;;5075572;28;20175;-86
2022/06/19 00:07:15;;;;;;;20.20;4.55;;;15.00;80.60;;;;;;5074038;28;20175;-87
2022/06/19 00:09:41;;;;;;;24.42;5.03;;;15.00;81.00;;;;;;5073975;28;20191;-87
2022/06/19 00:12:08;;;;;;;24.85;4.68;;;14.90;81.10;;;;;;5075152;28;20305;-87
2022/06/19 00:14:34;;;;;;;19.23;4.32;;;15.00;81.10;;;;;;5073889;28;20179;-86
2022/06/19 00:17:01;;;;;;;32.58;6.07;;;15.00;81.10;;;;;;5073806;28;20171;-87
2022/06/19 00:19:26;;;;;;;27.52;5.95;;;14.90;81.20;;;;;;5073771;28;20191;-86
2022/06/19 00:21:52;;;;;;;31.20;6.43;;;14.90;81.60;;;;;;5073660;28;20270;-87
2022/06/19 00:24:18;;;;;;;27.25;5.70;;;14.80;82.00;;;;;;5073777;28;20175;-87
2022/06/19 00:26:43;;;;;;;24.53;5.20;;;14.80;82.30;;;;;;5074852;28;20168;-87
2022/06/19 00:29:09;;;;;;;20.30;5.03;;;14.80;82.60;;;;;;5073487;28;20182;-87
2022/06/19 00:31:46;;;;;;;26.67;5.32;;;14.80;82.80;;;;;;5073632;28;20186;-87
2022/06/19 00:34:12;;;;;;;24.73;5.20;;;14.80;82.80;;;;;;5073358;28;20186;-88
2022/06/19 00:36:37;;;;;;;28.02;5.05;;;14.80;82.80;;;;;;5073655;28;20175;-87
2022/06/19 00:39:03;;;;;;;27.33;5.45;;;14.80;82.80;;;;;;5073493;28;20195;-87
2022/06/19 00:41:34;;;;;;;29.03;5.30;;;14.70;83.20;;;;;;5073307;28;20196;-87
2022/06/19 00:44:05;;;;;;;24.23;5.07;;;14.60;83.50;;;;;;5073423;28;20206;-87
2022/06/19 00:46:47;;;;;;;25.53;5.47;;;14.50;83.90;;;;;;5073528;28;20168;-87
2022/06/19 00:49:16;;;;;;;25.60;5.37;;;14.50;84.10;;;;;;5073516;28;20346;-87
2022/06/19 00:51:43;;;;;;;22.03;4.17;;;14.50;84.20;;;;;;5074584;28;20254;-87
2022/06/19 00:54:11;;;;;;;26.03;5.63;;;14.40;84.40;;;;;;5073340;28;20644;-87
2022/06/19 00:56:37;;;;;;;24.83;5.20;;;14.30;84.90;;;;;;5074518;28;20187;-87
2022/06/19 00:59:04;;;;;;;21.93;5.67;;;14.20;85.30;;;;;;5073151;28;20206;-87
2022/06/19 01:01:31;;;;;;;23.80;4.83;;;14.10;85.80;;;;;;5072929;28;20199;-87
2022/06/19 01:04:09;;;;;;;30.37;6.00;;;14.10;85.90;;;;;;5072987;28;20178;-87
2022/06/19 01:06:35;;;;;;;33.53;6.70;;;14.20;85.80;;;;;;5073204;28;20163;-87
2022/06/19 01:09:01;;;;;;;19.60;5.23;;;14.20;85.60;;;;;;5073005;28;20186;-87
2022/06/19 01:11:35;;;;;;;29.90;5.57;;;14.10;85.60;;;;;;5072822;28;20333;-87
2022/06/19 01:14:02;;;;;;;22.63;4.90;;;14.00;85.90;;;;;;5074399;28;20637;-87
2022/06/19 01:16:28;;;;;;;26.20;5.30;;;14.00;86.00;;;;;;5073080;28;20645;-87
2022/06/19 01:18:54;;;;;;;28.93;5.90;;;14.00;85.90;;;;;;5072659;28;20289;-87
2022/06/19 01:21:26;;;;;;;31.60;6.47;;;13.90;86.00;;;;;;5072639;28;20663;-87
2022/06/19 01:24:05;;;;;;;20.17;5.23;;;13.80;86.30;;;;;;5072804;28;20168;-87
2022/06/19 01:26:36;;;;;;;27.97;6.03;;;13.80;86.50;;;;;;5074090;28;20148;-87
2022/06/19 01:29:02;;;;;;;26.63;5.90;;;13.80;86.50;;;;;;5073868;28;20247;-87
2022/06/19 01:31:33;;;;;;;21.63;5.60;;;13.80;86.60;;;;;;5074184;28;20274;-87
2022/06/19 01:34:27;;;;;;;26.60;5.20;;;13.70;86.90;;;;;;5074264;28;20160;-87
2022/06/19 01:37:07;;;;;;;27.03;5.17;;;13.60;87.20;;;;;;5072763;28;20179;-87
2022/06/19 01:39:41;;;;;;;23.40;5.40;;;13.50;87.40;;;;;;5072590;28;20199;-87
2022/06/19 01:42:08;;;;;;;26.13;5.30;;;13.50;87.60;;;;;;5074111;28;20639;-87
2022/06/19 01:44:34;;;;;;;26.27;5.40;;;13.40;87.80;;;;;;5072185;28;20199;-87
2022/06/19 01:47:00;;;;;;;23.37;5.13;;;13.40;88.00;;;;;;5073696;28;20182;-87
2022/06/19 01:49:32;;;;;;;23.47;4.80;;;13.30;88.20;;;;;;5072402;28;20203;-87
2022/06/19 01:51:58;;;;;;;26.77;5.63;;;13.50;88.20;;;;;;5073629;28;20210;-87
2022/06/19 01:54:29;;;;;;;32.93;5.20;;;13.50;88.10;;;;;;5072570;28;20179;-87
2022/06/19 01:56:55;;;;;;;22.30;5.40;;;13.40;88.20;;;;;;5072413;28;20229;-86
2022/06/19 01:59:23;;;;;;;21.93;5.17;;;13.30;88.40;;;;;;5072197;28;20199;-86
2022/06/19 02:01:53;;;;;;;24.90;5.40;;;13.20;88.60;;;;;;5072591;28;20634;-86
2022/06/19 02:04:19;;;;;;;18.87;4.87;;;13.30;88.90;;;;;;5073197;28;20170;-86
2022/06/19 02:06:47;;;;;;;21.00;5.10;;;13.30;88.90;;;;;;5072828;28;20610;-86
2022/06/19 02:09:19;;;;;;;26.00;5.30;;;13.50;88.90;;;;;;5072463;28;20175;-86
2022/06/19 02:11:44;;;;;;;25.63;5.10;;;13.60;88.80;;;;;;5073698;28;20172;-87
2022/06/19 02:14:12;;;;;;;24.17;4.90;;;13.60;88.50;;;;;;5073460;28;20549;-86
2022/06/19 02:16:42;;;;;;;21.27;5.40;;;13.50;88.30;;;;;;5073532;28;20232;-86
2022/06/19 02:19:08;;;;;;;25.70;6.13;;;13.50;88.30;;;;;;5073360;28;20222;-86
2022/06/19 02:21:40;;;;;;;19.13;5.23;;;13.30;88.50;;;;;;5072227;28;20175;-86
2022/06/19 02:24:09;;;;;;;24.00;5.70;;;13.30;88.80;;;;;;5073418;28;20167;-86
2022/06/19 02:26:37;;;;;;;28.17;5.47;;;13.30;89.00;;;;;;5073655;28;20166;-86
2022/06/19 02:29:06;;;;;;;19.93;4.87;;;13.20;89.10;;;;;;5071998;28;20186;-86
2022/06/19 02:31:34;;;;;;;28.80;5.50;;;13.20;89.20;;;;;;5072059;28;20550;-87
2022/06/19 02:34:05;;;;;;;17.40;5.07;;;13.20;89.30;;;;;;5071942;28;20176;-86
2022/06/19 02:36:33;;;;;;;21.43;5.10;;;13.20;89.50;;;;;;5073342;28;20164;-86
2022/06/19 02:39:11;;;;;;;32.80;5.63;;;13.00;89.50;;;;;;5073008;28;20306;-87
2022/06/19 02:41:44;;;;;;;19.47;5.30;;;13.00;89.70;;;;;;5073228;28;20624;-86
2022/06/19 02:44:10;;;;;;;24.27;5.13;;;13.00;89.80;;;;;;5071928;28;20221;-86
2022/06/19 02:46:35;;;;;;;30.93;5.60;;;13.00;89.80;;;;;;5073174;28;20171;-86
2022/06/19 02:49:02;;;;;;;20.70;4.87;;;12.90;89.90;;;;;;5071909;28;20171;-86
2022/06/19 02:51:28;;;;;;;25.03;5.27;;;12.90;89.90;;;;;;5071619;28;20261;-86
2022/06/19 02:53:54;;;;;;;32.10;5.23;;;13.00;90.00;;;;;;5072104;28;20172;-89
2022/06/19 02:56:19;;;;;;;27.30;6.17;;;13.10;90.00;;;;;;5072829;28;20191;-86
2022/06/19 02:58:45;;;;;;;30.87;6.27;;;13.20;89.90;;;;;;5075798;28;20203;-86
2022/06/19 03:01:10;;;;;;;28.20;5.73;;;13.30;89.80;;;;;;5075818;28;20576;-87
2022/06/19 03:03:36;;;;;;;24.33;5.20;;;13.40;89.50;;;;;;5077004;28;20534;-87
2022/06/19 03:06:06;;;;;;;28.37;5.40;;;13.50;89.20;;;;;;5075421;28;20262;-86
2022/06/19 03:08:32;;;;;;;23.23;4.97;;;13.50;88.80;;;;;;5075379;28;20179;-86
2022/06/19 03:10:58;;;;;;;20.20;5.13;;;13.60;88.10;;;;;;5075204;28;20704;-86
2022/06/19 03:13:25;;;;;;;28.27;6.10;;;13.70;87.40;;;;;;5076720;28;20172;-86
2022/06/19 03:16:07;;;;;;;24.40;4.87;;;13.80;87.00;;;;;;5075055;28;20183;-86
2022/06/19 03:18:33;;;;;;;22.33;4.97;;;13.80;86.70;;;;;;5076206;28;20286;-86
2022/06/19 03:20:59;;;;;;;24.17;5.57;;;13.90;86.30;;;;;;5075080;28;20199;-86
2022/06/19 03:23:25;;;;;;;26.90;4.93;;;13.90;86.00;;;;;;5075174;28;20167;-86
2022/06/19 03:25:50;;;;;;;21.93;4.90;;;14.00;85.70;;;;;;5076362;28;20167;-87
2022/06/19 03:28:16;;;;;;;32.20;5.00;;;13.90;85.50;;;;;;5075003;28;20203;-86
2022/06/19 03:30:41;;;;;;;23.47;5.00;;;13.90;85.30;;;;;;5075042;28;20191;-86
2022/06/19 03:33:07;;;;;;;26.47;5.13;;;14.00;85.20;;;;;;5074955;28;20183;-86
2022/06/19 03:35:33;;;;;;;29.70;4.57;;;14.00;85.20;;;;;;5074786;28;20175;-87
2022/06/19 03:37:58;;;;;;;15.63;4.63;;;14.00;85.40;;;;;;5074736;28;20579;-87
2022/06/19 03:40:24;;;;;;;26.57;5.00;;;14.00;85.70;;;;;;5076335;28;20226;-87
2022/06/19 03:42:50;;;;;;;26.70;5.13;;;13.90;86.20;;;;;;5074821;28;20172;-86
2022/06/19 03:45:15;;;;;;;28.53;5.43;;;13.80;86.60;;;;;;5075012;28;20186;-87
2022/06/19 03:47:41;;;;;;;25.00;5.03;;;13.80;86.80;;;;;;5076146;28;20633;-87
2022/06/19 03:50:08;;;;;;;27.73;5.43;;;13.80;87.00;;;;;;5074530;28;20607;-87
2022/06/19 03:52:33;;;;;;;29.40;5.03;;;13.80;87.00;;;;;;5074860;28;20547;-87
2022/06/19 03:54:59;;;;;;;27.97;5.90;;;13.80;87.10;;;;;;5074627;28;20175;-87
2022/06/19 03:57:25;;;;;;;31.90;6.03;;;13.80;87.00;;;;;;5075443;28;20533;-87
2022/06/19 03:59:51;;;;;;;25.93;5.13;;;13.80;87.10;;;;;;5074423;28;20188;-87
2022/06/19 04:02:18;;;;;;;32.80;6.53;;;13.90;87.00;;;;;;5074505;28;20206;-87
2022/06/19 04:04:44;;;;;;;32.90;6.17;;;13.90;87.20;;;;;;5074571;28;20653;-87
2022/06/19 04:07:12;;;;;;;24.77;5.13;;;13.90;87.10;;;;;;5073973;28;20167;-87
2022/06/19 04:09:38;;;;;;;28.77;5.27;;;13.90;87.00;;;;;;5074447;28;20576;-87
2022/06/19 04:12:04;;;;;;;27.07;5.57;;;13.90;86.90;;;;;;5075895;28;20505;-87
2022/06/19 04:14:30;;;;;;;25.43;4.80;;;14.00;86.80;;;;;;5074517;28;20669;-87
2022/06/19 04:16:55;;;;;;;28.67;5.80;;;14.00;86.70;;;;;;5074350;28;20178;-87
2022/06/19 04:19:21;;;;;;;25.73;5.13;;;14.00;86.80;;;;;;5074050;28;20571;-88
2022/06/19 04:21:46;;;;;;;21.27;4.37;;;14.10;86.80;;;;;;5074718;28;20645;-88
2022/06/19 04:24:14;;;;;;;23.93;4.97;;;14.00;86.50;;;;;;5074094;28;20668;-87
2022/06/19 04:26:41;;;;;;;26.13;4.53;;;14.10;86.60;;;;;;5073913;28;20168;-87
2022/06/19 04:29:07;;;;;;;23.90;4.70;;;14.10;86.60;;;;;;5074368;28;20194;-87
2022/06/19 04:31:33;;;;;;;28.77;5.63;;;14.20;86.40;;;;;;5073998;28;20665;-89
2022/06/19 04:33:59;;;;;;;27.60;5.00;;;14.20;86.40;;;;;;5073967;28;20194;-86
2022/06/19 04:36:28;;;;;;;34.53;6.60;;;14.20;86.40;;;;;;5073890;28;20598;-87
2022/06/19 04:38:56;;;;;;;26.80;5.97;;;14.30;86.40;;;;;;5073980;28;20208;-86
2022/06/19 04:41:43;;;;;;;24.97;5.13;;;14.30;85.90;;;;;;5075300;28;20556;-87
2022/06/19 04:44:12;;;;;;;26.83;4.83;;;14.40;85.70;;;;;;5074131;28;20190;-87
2022/06/19 04:46:38;;;;;;;31.13;5.87;;;14.40;85.90;;;;;;5074993;28;20172;-87
2022/06/19 04:49:04;;;;;;;32.40;5.77;;;14.40;85.90;;;;;;5073813;28;20175;-87
2022/06/19 04:51:29;;;;;;;25.67;5.13;;;14.40;85.90;;;;;;5073601;28;20195;-87
2022/06/19 04:53:55;;;;;;;26.90;5.57;;;14.40;85.70;;;;;;5074749;28;20167;-88
2022/06/19 04:56:21;;;;;;;22.03;5.10;;;14.40;85.30;;;;;;5072971;28;20220;-87
2022/06/19 04:58:48;;;;;;;26.00;5.13;;;14.50;85.20;;;;;;5073155;28;20290;-87
2022/06/19 05:01:23;;;;;;;24.30;5.30;;;14.70;85.00;;;;;;5073122;28;20195;-86
2022/06/19 05:03:49;;;;;;;31.40;7.17;;;14.70;84.60;;;;;;5074323;28;20166;-87
2022/06/19 05:06:15;;;;;;;29.83;5.33;;;14.70;84.40;;;;;;5074398;28;20163;-86
2022/06/19 05:08:40;;;;;;;22.87;5.13;;;14.80;84.40;;;;;;5074304;28;20225;-86
2022/06/19 05:11:09;;;;;;;29.03;5.47;;;14.80;84.50;;;;;;5073024;28;20611;-87
2022/06/19 05:13:34;;;;;;;26.43;4.73;;;14.80;84.50;;;;;;5072826;28;20270;-86
2022/06/19 05:16:06;;;;;;;25.23;5.47;;;14.80;84.50;;;;;;5072838;28;20211;-87
2022/06/19 05:18:33;;;;;;;24.80;5.20;;;14.80;84.60;;;;;;5072582;28;20223;-87
2022/06/19 05:21:01;;;;;;;22.90;5.17;;;14.80;84.40;;;;;;5073785;28;20677;-86
2022/06/19 05:23:30;;;;;;;22.07;4.57;;;14.80;84.50;;;;;;5072584;28;20175;-86
2022/06/19 05:26:21;;;;;;;23.37;5.03;;;14.80;84.70;;;;;;5074084;28;20254;-87
2022/06/19 05:28:49;;;;;;;21.77;4.93;;;14.80;84.50;;;;;;5074485;28;20155;-87
2022/06/19 05:31:15;;;;;;;29.40;5.53;;;14.80;84.20;;;;;;5072708;28;20191;-88
2022/06/19 05:33:40;;;;;;;24.27;4.87;;;14.80;83.90;;;;;;5073753;28;20527;-86
2022/06/19 05:36:06;;;;;;;17.40;4.50;;;14.90;84.20;;;;;;5073745;28;20174;-87
2022/06/19 05:38:32;;;;;;;20.70;4.30;;;14.90;83.80;;;;;;5072693;28;20241;-86
2022/06/19 05:40:59;;;;;;;21.30;5.60;;;15.00;83.90;;;;;;5073558;28;20195;-87
2022/06/19 05:43:27;;;;;;;22.77;4.90;;;15.00;83.50;;;;;;5073527;28;20167;-86
2022/06/19 05:46:02;;;;;;;20.27;5.03;;;15.10;83.20;;;;;;5072312;28;20586;-87
2022/06/19 05:48:29;;;;;;;18.60;4.90;;;15.00;83.00;;;;;;5073532;28;20553;-87
2022/06/19 05:51:04;;;;;;;28.80;5.77;;;15.00;83.40;;;;;;5073323;28;20195;-87
2022/06/19 05:53:32;;;;;;;23.23;6.00;;;15.00;83.90;;;;;;5073385;28;20167;-87
2022/06/19 05:55:57;;;;;;;26.33;5.47;;;15.00;84.00;;;;;;5073284;28;20179;-86
2022/06/19 05:58:23;;;;;;;23.53;5.00;;;14.90;84.10;;;;;;5073466;28;20241;-87
2022/06/19 06:00:49;;;;;;;19.40;4.40;;;14.90;84.10;;;;;;5072102;28;20588;-87
2022/06/19 06:03:16;;;;;;;20.13;5.07;;;14.80;83.80;;;;;;5073312;28;20185;-87
2022/06/19 06:05:43;;;;;;;20.60;5.40;;;14.80;84.10;;;;;;5072319;28;20198;-87
2022/06/19 06:08:09;;;;;;;15.53;4.60;;;14.70;83.90;;;;;;5073589;28;20167;-87
2022/06/19 06:10:35;;;;;;;17.70;4.30;;;14.70;84.10;;;;;;5072929;28;20244;-86
2022/06/19 06:13:01;;;;;;;20.47;4.50;;;14.50;84.00;;;;;;5072262;28;20171;-86
2022/06/19 06:15:26;;;;;;;21.40;4.33;;;14.60;84.40;;;;;;5072027;28;20175;-87
2022/06/19 06:17:52;;;;;;;24.07;4.57;;;14.50;84.60;;;;;;5073167;28;20239;-87
2022/06/19 06:20:17;;;;;;;22.50;4.77;;;14.60;84.90;;;;;;5072149;28;20722;-87
2022/06/19 06:22:43;;;;;;;19.97;5.10;;;14.60;84.60;;;;;;5071868;28;20175;-87
2022/06/19 06:25:12;;;;;;;21.37;4.83;;;14.70;84.50;;;;;;5072008;28;20594;-88
2022/06/19 06:27:38;;;;;;;19.40;4.23;;;14.80;84.20;;;;;;5071904;28;20179;-87
2022/06/19 06:30:05;;;;;;;23.90;4.73;;;15.00;84.00;;;;;;5073875;28;20191;-87
2022/06/19 06:32:30;;;;;;;21.93;4.93;;;15.20;83.00;;;;;;5076922;28;20179;-87
2022/06/19 06:34:56;;;;;;;20.63;4.63;;;15.40;82.40;;;;;;5076248;28;20266;-87
2022/06/19 06:37:22;;;;;;;15.07;3.77;;;15.70;82.50;;;;;;5077479;28;20175;-87
2022/06/19 06:39:48;;;;;;;19.20;3.90;;;15.80;81.30;;;;;;5077591;28;20187;-86
2022/06/19 06:42:13;;;;;;;21.77;5.20;;;15.70;81.30;;;;;;5076653;28;20654;-86
2022/06/19 06:44:39;;;;;;;16.80;4.30;;;15.60;80.40;;;;;;5076653;28;20309;-86
2022/06/19 06:47:05;;;;;;;16.97;3.97;;;15.60;81.00;;;;;;5076754;28;20214;-86
2022/06/19 06:49:30;;;;;;;17.40;4.00;;;15.50;81.40;;;;;;5076376;28;20237;-88
2022/06/19 06:51:56;;;;;;;17.13;4.80;;;15.40;80.50;;;;;;5076427;28;20653;-87
2022/06/19 06:54:21;;;;;;;18.67;4.10;;;15.30;80.30;;;;;;5076068;28;20739;-86
2022/06/19 06:56:47;;;;;;;15.70;3.30;;;15.30;80.30;;;;;;5077620;28;20195;-87
2022/06/19 06:59:12;;;;;;;22.03;3.70;;;15.30;79.20;;;;;;5075767;28;20286;-87
2022/06/19 07:01:38;;;;;;;14.20;3.47;;;15.30;78.60;;;;;;5076975;28;20660;-86
2022/06/19 07:04:04;;;;;;;17.00;3.33;;;15.40;79.00;;;;;;5076415;28;20190;-87
2022/06/19 07:06:31;;;;;;;11.53;3.37;;;15.50;77.50;;;;;;5077470;28;20179;-87
2022/06/19 07:08:57;;;;;;;12.33;3.77;;;15.50;77.30;;;;;;5077187;28;20218;-88
2022/06/19 07:11:25;;;;;;;15.47;3.13;;;15.50;77.60;;;;;;5076763;28;20597;-87
2022/06/19 07:13:52;;;;;;;16.33;3.10;;;15.60;76.80;;;;;;5076452;28;20250;-87
2022/06/19 07:16:17;;;;;;;11.83;2.97;;;15.70;75.80;;;;;;5075396;28;20175;-90
2022/06/19 07:18:44;;;;;;;19.27;3.63;;;15.70;75.30;;;;;;5075323;28;20210;-90
2022/06/19 07:21:11;;;;;;;13.00;3.75;;;15.80;74.90;;;;;;5075121;28;20218;-88
2022/06/19 07:23:37;;;;;;;12.37;3.50;;;15.90;75.70;;;;;;5075024;28;20708;-89
2022/06/19 07:26:02;;;;;;;23.58;4.53;;;16.00;75.60;;;;;;5074852;28;20551;-90
2022/06/19 07:28:28;;;;;;;20.08;3.83;;;16.10;75.80;;;;;;5075074;28;20187;-92
2022/06/19 07:30:54;;;;;;;13.68;3.40;;;16.10;75.10;;;;;;5076181;28;20202;-87
2022/06/19 07:33:20;;;;;;;19.42;3.50;;;16.20;75.90;;;;;;5074798;28;20274;-87
2022/06/19 07:35:46;;;;;;;19.20;3.08;;;16.20;74.70;;;;;;5076133;28;20233;-88
2022/06/19 07:38:11;;;;;;;17.90;3.88;;;16.30;74.80;;;;;;5074574;28;20295;-86
2022/06/19 07:40:37;;;;;;;13.07;3.28;;;16.40;75.20;;;;;;5074675;28;20222;-87
2022/06/19 07:43:06;;;;;;;10.43;3.15;;;16.50;75.50;;;;;;5073712;28;20556;-88
2022/06/19 07:45:31;;;;;;;15.02;4.25;;;16.40;75.80;;;;;;5075668;28;20202;-86
2022/06/19 07:50:42;;;;;;;18.05;3.22;;;16.70;76.70;;;;;;5076095;28;20287;-87
2022/06/19 07:53:08;;;;;;;15.20;3.97;;;16.90;76.30;;;;;;5074248;28;20207;-87
2022/06/19 07:55:33;;;;;;;15.65;3.97;;;16.90;75.50;;;;;;5076020;28;20183;-87
2022/06/19 07:58:00;;;;;;;10.85;3.08;;;17.10;76.20;;;;;;5075487;28;20199;-86
2022/06/19 08:00:32;;;;;;;11.80;3.28;;;17.10;75.10;;;;;;5074255;28;20202;-87
2022/06/19 08:02:58;;;;;;;12.63;3.33;;;16.90;74.90;;;;;;5074206;28;20156;-86
2022/06/19 08:05:26;;;;;;;14.32;3.72;;;17.00;76.70;;;;;;5074131;28;20179;-87
2022/06/19 08:07:52;;;;;;;12.75;3.10;;;17.00;76.10;;;;;;5074007;28;20175;-87
2022/06/19 08:10:39;;;;;;;15.13;3.45;;;17.20;75.70;;;;;;5073922;28;20294;-87
2022/06/19 08:13:06;;;;;;;9.15;2.70;;;17.00;75.80;;;;;;5074488;28;20248;-86
2022/06/19 08:15:33;;;;;;;11.85;3.08;;;17.00;76.10;;;;;;5075348;28;20167;-88
2022/06/19 08:17:59;;;;;;;8.88;2.72;;;17.00;75.60;;;;;;5075328;28;20203;-90
2022/06/19 08:20:26;;;;;;;11.32;2.90;;;17.00;75.10;;;;;;5073920;28;20195;-88
2022/06/19 08:22:53;;;;;;;11.93;3.13;;;16.80;74.70;;;;;;5073745;28;20178;-87
2022/06/19 08:25:22;;;;;;;12.75;3.20;;;16.80;74.50;;;;;;5074104;28;20175;-87
2022/06/19 08:27:49;;;;;;;17.67;3.88;;;16.70;75.00;;;;;;5073698;28;20205;-87
2022/06/19 08:30:22;;;;;;;13.35;2.85;;;16.80;75.50;;;;;;5073474;28;20219;-84
2022/06/19 08:32:47;;;;;;;11.60;3.67;;;17.00;75.60;;;;;;5075585;28;20262;-86
2022/06/19 08:35:13;;;;;;;10.55;3.10;;;17.00;75.00;;;;;;5073753;28;20211;-86
2022/06/19 08:37:41;;;;;;;10.50;2.80;;;16.70;75.10;;;;;;5075071;28;20195;-86
2022/06/19 08:40:31;;;;;;;10.90;3.40;;;16.50;75.50;;;;;;5073770;28;20270;-86
2022/06/19 08:43:31;;;;;;;8.25;2.80;;;16.50;76.80;;;;;;5073582;28;20632;-86
2022/06/19 08:46:07;;;;;;;15.23;3.05;;;16.50;76.60;;;;;;5072219;28;20194;-86
2022/06/19 08:48:39;;;;;;;10.48;3.20;;;16.60;76.70;;;;;;5074861;28;20159;-86
2022/06/19 08:51:29;;;;;;;11.35;3.15;;;16.60;76.00;;;;;;5074910;28;20202;-86
2022/06/19 08:54:18;;;;;;;13.23;3.35;;;16.50;75.30;;;;;;5073272;28;20179;-86
2022/06/19 08:56:58;;;;;;;10.07;2.75;;;16.60;75.90;;;;;;5072757;28;20677;-87
2022/06/19 08:59:36;;;;;;;9.75;3.13;;;16.80;75.80;;;;;;5074515;28;20214;-86
2022/06/19 09:02:11;;;;;;;14.50;2.88;;;17.00;75.30;;;;;;5073214;28;20163;-86
2022/06/19 09:08:06;;;;;;;11.77;3.42;;;16.80;74.70;;;;;;5074495;28;20554;-86
2022/06/19 09:10:48;;;;;;;8.95;2.80;;;16.60;75.90;;;;;;5073015;28;20195;-86
2022/06/19 09:13:28;;;;;;;9.73;2.83;;;16.60;75.80;;;;;;5073110;28;20182;-87
2022/06/19 09:16:01;;;;;;;8.85;3.33;;;16.60;76.10;;;;;;5074256;28;20246;-87
2022/06/19 09:18:55;;;;;;;11.63;3.42;;;16.60;76.50;;;;;;5074219;28;20199;-87
2022/06/19 09:21:47;;;;;;;12.48;3.10;;;16.50;76.40;;;;;;5073306;28;20289;-86
2022/06/19 09:24:48;;;;;;;11.98;3.50;;;16.60;77.00;;;;;;5073024;28;20168;-87
2022/06/19 09:27:16;;;;;;;12.30;2.92;;;16.70;76.00;;;;;;5069223;28;20186;-87
2022/06/19 09:29:41;;;;;;;11.95;2.90;;;16.60;76.70;;;;;;5074240;28;20610;-87
2022/06/19 09:32:16;;;;;;;14.27;3.00;;;16.70;77.00;;;;;;5074313;28;20171;-86
2022/06/19 09:34:51;;;;;;;9.20;2.80;;;16.60;76.80;;;;;;5074281;28;20163;-86
2022/06/19 09:37:28;;;;;;;11.70;3.47;;;16.60;76.70;;;;;;5074322;28;20236;-87
2022/06/19 09:40:08;;;;;;;7.55;3.10;;;16.40;77.40;;;;;;5074415;28;20204;-86
2022/06/19 09:42:38;;;;;;;11.70;3.25;;;16.50;77.80;;;;;;5074118;28;20630;-86
2022/06/19 09:45:15;;;;;;;10.27;3.08;;;16.20;78.20;;;;;;5072719;28;20164;-86
2022/06/19 09:47:49;;;;;;;12.98;3.35;;;16.10;79.00;;;;;;5072641;28;20535;-86
2022/06/19 09:50:20;;;;;;;11.52;3.30;;;16.00;79.40;;;;;;5073900;28;20198;-87
2022/06/19 09:53:09;;;;;;;11.55;3.28;;;16.00;80.10;;;;;;5074173;28;20167;-86
2022/06/19 09:55:37;;;;;;;10.48;3.83;;;16.00;80.30;;;;;;5074156;28;20171;-87
2022/06/19 09:58:14;;;;;;;7.38;2.85;;;16.00;80.50;;;;;;5073777;28;20211;-86
2022/06/19 10:00:44;;;;;;;12.18;3.40;;;16.00;80.20;;;;;;5073829;28;20231;-86
2022/06/19 10:03:19;;;;;;;11.55;3.70;;;15.90;80.50;;;;;;5074113;28;20163;-86
2022/06/19 10:06:22;;;;;;;10.70;3.38;;;15.80;80.70;;;;;;5072353;28;20163;-86
2022/06/19 10:08:58;;;;;;;11.48;3.67;;;15.70;81.70;;;;;;5073126;28;20661;-85
2022/06/19 10:11:29;;;;;;;8.48;2.75;;;15.80;81.40;;;;;;5072632;28;20742;-85
2022/06/19 10:14:13;;;;;;;13.00;3.80;;;16.00;81.00;;;;;;5072506;28;20629;-86
2022/06/19 10:16:51;;;;;;;18.50;3.97;;;16.10;79.90;;;;;;5074068;28;20164;-86
2022/06/19 10:19:20;;;;;;;10.48;3.30;;;16.20;80.00;;;;;;5073520;28;20187;-86
2022/06/19 10:25:15;;;;;;;7.38;3.08;;;16.20;80.20;;;;;;5074340;28;20201;-86
2022/06/19 10:28:11;;;;;;;18.05;3.75;;;16.30;80.10;;;;;;5073945;28;20186;-86
2022/06/19 10:30:54;;;;;;;10.18;2.97;;;16.20;80.20;;;;;;5072398;28;20196;-86
2022/06/19 10:33:47;;;;;;;9.48;3.22;;;16.30;80.60;;;;;;5072525;28;20163;-86
2022/06/19 10:36:27;;;;;;;13.98;3.17;;;16.50;79.80;;;;;;5072449;28;20166;-86
2022/06/19 10:39:37;;;;;;;10.32;3.10;;;16.70;78.80;;;;;;5073393;28;20320;-86
2022/06/19 10:42:10;;;;;;;11.20;3.63;;;16.80;77.60;;;;;;5054582;28;20175;-86
2022/06/19 10:44:48;;;;;;;12.23;3.70;;;16.70;77.80;;;;;;5070441;28;20183;-86
2022/06/19 10:47:41;;;;;;;13.98;3.42;;;16.50;78.90;;;;;;5073416;28;20541;-86
2022/06/19 10:50:39;;;;;;;11.18;3.15;;;16.50;79.70;;;;;;5071938;28;20195;-86
2022/06/19 10:53:07;;;;;;;15.02;4.35;;;16.40;79.80;;;;;;5072099;28;20166;-87
2022/06/19 10:55:58;;;;;;;14.80;3.88;;;16.30;79.90;;;;;;5072241;28;20545;-86
2022/06/19 10:58:28;;;;;;;11.85;3.85;;;16.20;80.80;;;;;;5073419;28;20237;-87
2022/06/19 11:00:57;;;;;;;15.13;3.47;;;16.30;80.30;;;;;;5073515;28;20271;-87
2022/06/19 11:06:46;;;;;;;18.27;4.18;;;15.90;81.10;;;;;;5073755;28;20174;-87
2022/06/19 11:09:29;;;;;;;16.58;6.40;;;16.00;82.30;;;;;;5071803;28;20163;-86
2022/06/19 11:12:01;;;;;;;37.15;24.15;;;16.10;82.80;;;;;;5073315;28;20495;-86
2022/06/19 11:14:52;;;;;;;15.38;7.57;;;16.30;82.70;;;;;;5073312;28;20636;-86
2022/06/19 11:17:41;;;;;;;64.65;28.75;;;16.40;82.30;;;;;;5074083;28;20175;-86
2022/06/19 11:20:16;;;;;;;17.80;8.77;;;16.40;83.30;;;;;;5076932;28;20195;-86
2022/06/19 11:22:44;;;;;;;16.98;5.38;;;16.50;83.00;;;;;;5075936;28;20170;-87
2022/06/19 11:25:19;;;;;;;15.05;5.60;;;16.50;82.80;;;;;;5075286;28;20208;-86
2022/06/19 11:27:57;;;;;;;17.73;4.82;;;16.50;82.10;;;;;;5076611;28;20589;-86
2022/06/19 11:30:34;;;;;;;26.27;11.00;;;16.50;81.60;;;;;;5076624;28;20616;-86
2022/06/19 11:33:02;;;;;;;16.10;6.03;;;16.50;81.30;;;;;;5076825;28;20164;-87
2022/06/19 11:35:48;;;;;;;13.73;4.82;;;16.40;81.50;;;;;;5076605;28;20178;-87
2022/06/19 11:38:17;;;;;;;14.00;5.63;;;16.50;81.60;;;;;;5076889;28;20184;-87
2022/06/19 11:40:48;;;;;;;29.10;11.93;;;16.40;81.90;;;;;;5074739;28;20633;-87
2022/06/19 11:43:32;;;;;;;15.05;6.47;;;16.40;82.30;;;;;;5076486;28;20164;-87
2022/06/19 11:46:03;;;;;;;20.25;7.55;;;16.50;82.30;;;;;;5075955;28;20602;-87
2022/06/19 11:48:29;;;;;;;85.13;46.45;;;16.50;82.80;;;;;;5075753;28;20171;-87
2022/06/19 11:50:56;;;;;;;18.25;8.55;;;16.70;83.00;;;;;;5074422;28;20681;-87
2022/06/19 11:53:28;;;;;;;18.70;6.50;;;16.60;83.30;;;;;;5074701;28;20601;-87
2022/06/19 11:56:44;;;;;;;11.77;4.03;;;16.70;83.40;;;;;;5074580;28;20168;-87
2022/06/19 11:59:41;;;;;;;11.40;4.00;;;16.70;83.20;;;;;;5070306;28;20211;-86
2022/06/19 12:02:26;;;;;;;11.93;3.63;;;16.60;82.90;;;;;;5074472;28;20555;-87
2022/06/19 12:04:54;;;;;;;9.35;3.88;;;16.70;82.60;;;;;;5075475;28;20163;-87
2022/06/19 12:07:23;;;;;;;12.05;4.45;;;16.50;83.30;;;;;;5074134;28;20254;-87
2022/06/19 12:09:57;;;;;;;12.73;4.35;;;16.50;83.00;;;;;;5075503;28;20198;-87
2022/06/19 12:12:23;;;;;;;12.15;4.93;;;16.50;83.30;;;;;;5075360;28;20164;-87
2022/06/19 12:15:27;;;;;;;9.65;4.22;;;16.30;84.80;;;;;;5073971;28;20180;-87
2022/06/19 12:18:02;;;;;;;11.40;4.68;;;16.20;85.70;;;;;;5073971;28;20262;-88
2022/06/19 12:20:33;;;;;;;9.70;4.72;;;16.00;85.30;;;;;;5075641;28;20704;-87
2022/06/19 12:23:06;;;;;;;11.57;4.95;;;16.00;85.70;;;;;;5075209;28;20209;-87
2022/06/19 12:25:42;;;;;;;11.70;4.70;;;16.20;85.70;;;;;;5075187;28;20183;-87
2022/06/19 12:28:27;;;;;;;8.52;3.80;;;16.30;86.10;;;;;;5073640;28;20321;-87
2022/06/19 12:31:13;;;;;;;9.90;4.00;;;16.50;86.00;;;;;;5073809;28;20187;-88
2022/06/19 12:34:15;;;;;;;13.07;4.53;;;16.50;85.70;;;;;;5073670;28;20167;-87
2022/06/19 12:36:40;;;;;;;6.97;3.92;;;16.40;85.50;;;;;;5074202;28;20613;-87
2022/06/19 12:39:18;;;;;;;12.55;4.13;;;16.30;85.30;;;;;;5074303;28;20206;-87
2022/06/19 12:41:55;;;;;;;8.70;3.80;;;16.20;85.50;;;;;;5073729;28;20172;-87
2022/06/19 12:44:43;;;;;;;11.32;4.05;;;16.20;85.50;;;;;;5073578;28;20545;-87
2022/06/19 12:47:16;;;;;;;9.07;3.60;;;16.00;85.40;;;;;;5074662;28;20171;-87
2022/06/19 12:50:17;;;;;;;10.25;3.50;;;16.10;85.00;;;;;;5073473;28;20233;-87
2022/06/19 12:52:58;;;;;;;10.20;3.10;;;16.10;85.10;;;;;;5062444;28;20530;-87
2022/06/19 12:55:38;;;;;;;7.72;3.33;;;16.20;85.30;;;;;;5074406;28;20171;-87
2022/06/19 12:58:31;;;;;;;4.80;2.70;;;16.20;84.70;;;;;;5074247;28;20298;-87
2022/06/19 13:01:09;;;;;;;8.10;3.15;;;16.30;84.10;;;;;;5073908;28;20214;-88
2022/06/19 13:04:03;;;;;;;8.20;3.10;;;16.20;83.50;;;;;;5072923;28;20254;-88
2022/06/19 13:06:46;;;;;;;8.68;3.45;;;16.30;83.50;;;;;;5072911;28;20169;-88
2022/06/19 13:09:36;;;;;;;8.60;3.38;;;16.00;83.50;;;;;;5072785;28;20183;-88
2022/06/19 13:12:20;;;;;;;10.18;3.33;;;16.00;84.30;;;;;;5074388;28;20160;-88
2022/06/19 13:15:24;;;;;;;10.10;3.50;;;16.00;84.30;;;;;;5072802;28;20163;-87